Time;durP1;ratioP1;P1;durP2;ratioP2;P2;SDS_P1;SDS_P2;PMS_P1;PMS_P2;Temp;Humidity;BMP_temperature;BMP_pressure;BME280_temperature;BME280_humidity;BME280_pressure;Samples;Min_cycle;Max_cycle;Signal;HPM_P1;HPM_P2
2023/01/14 00:01:23;;;;;;;3.33;2.72;;;7.20;1.00;;;;;;5024844;28;20320;-88
2023/01/14 00:03:50;;;;;;;5.53;3.05;;;7.20;1.00;;;;;;5025256;28;20311;-86
2023/01/14 00:06:18;;;;;;;2.60;2.33;;;7.30;99.90;;;;;;5023416;28;20299;-86
2023/01/14 00:08:45;;;;;;;2.15;1.88;;;7.30;99.90;;;;;;5023754;28;20287;-87
2023/01/14 00:11:14;;;;;;;4.03;2.03;;;7.50;1.00;;;;;;5023301;28;20227;-87
2023/01/14 00:13:43;;;;;;;5.70;2.95;;;7.40;99.90;;;;;;5023702;28;20209;-87
2023/01/14 00:16:14;;;;;;;4.70;2.60;;;7.00;99.90;;;;;;5023264;28;20235;-87
2023/01/14 00:18:41;;;;;;;6.32;2.03;;;7.10;1.00;;;;;;5027441;28;20192;-87
2023/01/14 00:21:11;;;;;;;4.45;2.60;;;7.40;1.00;;;;;;5023306;28;20239;-87
2023/01/14 00:23:38;;;;;;;3.25;2.92;;;7.40;1.00;;;;;;5023123;28;20671;-87
2023/01/14 00:26:07;;;;;;;3.00;2.80;;;7.30;1.00;;;;;;5025606;28;20215;-86
2023/01/14 00:28:34;;;;;;;4.63;2.08;;;7.20;3.00;;;;;;5025833;28;20214;-86
2023/01/14 00:31:05;;;;;;;5.55;2.58;;;7.20;33.60;;;;;;5025430;28;20749;-86
2023/01/14 00:33:32;;;;;;;3.35;2.30;;;7.20;1.00;;;;;;5024991;28;20244;-85
2023/01/14 00:35:59;;;;;;;3.72;2.30;;;7.30;1.00;;;;;;5024988;28;20232;-85
2023/01/14 00:38:27;;;;;;;4.75;2.42;;;7.40;1.00;;;;;;5028719;28;20189;-86
2023/01/14 00:41:06;;;;;;;2.65;2.15;;;7.20;1.00;;;;;;5036541;28;20259;-87
2023/01/14 00:43:33;;;;;;;6.20;2.38;;;7.20;1.00;;;;;;5029917;28;20216;-87
2023/01/14 00:46:00;;;;;;;3.67;2.40;;;7.30;1.00;;;;;;5023446;28;20215;-87
2023/01/14 00:48:28;;;;;;;7.80;2.60;;;7.20;1.00;;;;;;5024301;28;20550;-87
2023/01/14 00:50:55;;;;;;;2.45;2.25;;;7.20;1.00;;;;;;5026062;28;20315;-86
2023/01/14 00:53:22;;;;;;;5.25;2.35;;;7.30;99.90;;;;;;5031395;28;20204;-86
2023/01/14 00:55:49;;;;;;;4.68;2.10;;;7.40;1.00;;;;;;5040946;28;20185;-85
2023/01/14 00:58:16;;;;;;;4.65;2.40;;;7.40;99.90;;;;;;5041086;28;20215;-86
2023/01/14 01:00:44;;;;;;;2.97;2.08;;;7.20;1.00;;;;;;5041195;28;20208;-84
2023/01/14 01:03:10;;;;;;;3.85;1.73;;;7.40;99.90;;;;;;5039202;28;20208;-87
2023/01/14 01:05:40;;;;;;;6.18;2.15;;;7.50;99.90;;;;;;5024278;28;20209;-87
2023/01/14 01:08:12;;;;;;;4.18;2.50;;;7.60;99.90;;;;;;5035108;28;20227;-86
2023/01/14 01:10:39;;;;;;;4.95;2.55;;;7.50;99.90;;;;;;5033307;28;20257;-86
2023/01/14 01:13:06;;;;;;;4.80;2.50;;;7.50;99.90;;;;;;5025714;28;20205;-87
2023/01/14 01:15:34;;;;;;;5.90;2.40;;;7.70;1.00;;;;;;5024895;28;20295;-87
2023/01/14 01:18:01;;;;;;;4.55;2.30;;;7.80;1.00;;;;;;5023930;28;20216;-87
2023/01/14 01:20:28;;;;;;;4.68;2.88;;;7.60;99.90;;;;;;5040012;28;20212;-84
2023/01/14 01:22:56;;;;;;;3.78;1.92;;;7.80;1.00;;;;;;5040770;28;20181;-83
2023/01/14 01:25:24;;;;;;;4.10;1.60;;;7.70;1.00;;;;;;5040811;28;20187;-84
2023/01/14 01:27:51;;;;;;;6.95;2.30;;;7.70;13.60;;;;;;5031390;28;20444;-86
2023/01/14 01:30:18;;;;;;;2.50;2.10;;;7.80;1.00;;;;;;5024477;28;20300;-85
2023/01/14 01:32:45;;;;;;;2.92;2.03;;;7.80;99.90;;;;;;5022794;28;20315;-86
2023/01/14 01:35:12;;;;;;;5.80;1.98;;;7.80;93.80;;;;;;5030147;28;20212;-85
2023/01/14 01:37:39;;;;;;;2.75;2.28;;;7.80;99.90;;;;;;5029490;28;20213;-87
2023/01/14 01:40:11;;;;;;;2.33;2.10;;;7.80;99.90;;;;;;5024772;28;20232;-87
2023/01/14 01:42:54;;;;;;;3.70;2.60;;;7.80;99.90;;;;;;5024004;28;20798;-87
2023/01/14 01:45:36;;;;;;;2.40;2.20;;;7.70;99.90;;;;;;5025801;28;20405;-87
2023/01/14 01:48:06;;;;;;;5.60;2.33;;;7.80;99.90;;;;;;5040041;28;20184;-85
2023/01/14 01:50:33;;;;;;;4.40;2.00;;;7.70;1.00;;;;;;5040243;28;20192;-84
2023/01/14 01:53:02;;;;;;;4.80;2.27;;;7.70;1.00;;;;;;5039084;28;20241;-85
2023/01/14 01:55:34;;;;;;;3.63;3.15;;;7.60;1.00;;;;;;5036859;28;20493;-87
2023/01/14 01:58:02;;;;;;;3.40;2.50;;;7.60;99.90;;;;;;5034040;28;20199;-86
2023/01/14 02:00:29;;;;;;;3.13;2.63;;;7.40;1.00;;;;;;5035423;28;20433;-87
2023/01/14 02:02:59;;;;;;;7.38;2.30;;;7.50;1.00;;;;;;5027985;28;20239;-86
2023/01/14 02:05:26;;;;;;;3.23;2.87;;;7.40;1.00;;;;;;5024137;28;20304;-87
2023/01/14 02:07:53;;;;;;;5.10;2.53;;;7.40;1.00;;;;;;5022079;28;20539;-87
2023/01/14 02:10:24;;;;;;;4.50;2.53;;;7.40;1.00;;;;;;5023533;28;20267;-87
2023/01/14 02:13:20;;;;;;;3.05;2.13;;;7.40;1.00;;;;;;5037437;28;20189;-87
2023/01/14 02:15:58;;;;;;;2.30;2.10;;;7.50;99.90;;;;;;5038645;28;20204;-87
2023/01/14 02:18:36;;;;;;;2.97;2.10;;;7.50;99.90;;;;;;5030995;28;20188;-86
2023/01/14 02:21:10;;;;;;;2.70;2.50;;;7.50;99.90;;;;;;5021039;28;20227;-86
2023/01/14 02:24:21;;;;;;;2.53;2.30;;;7.60;99.90;;;;;;5021483;28;20212;-86
2023/01/14 02:27:12;;;;;;;2.80;2.45;;;7.60;99.90;;;;;;5021554;28;20200;-86
2023/01/14 02:30:07;;;;;;;6.97;2.40;;;7.50;99.90;;;;;;5022207;28;20217;-87
2023/01/14 02:32:38;;;;;;;2.33;2.13;;;7.50;1.00;;;;;;5021274;28;20256;-86
2023/01/14 02:35:15;;;;;;;3.22;2.10;;;7.40;1.00;;;;;;5021583;28;20201;-87
2023/01/14 02:37:52;;;;;;;3.22;2.35;;;7.40;1.00;;;;;;5020806;28;20322;-87
2023/01/14 02:40:22;;;;;;;5.22;2.90;;;7.10;99.90;;;;;;5021350;28;20198;-87
2023/01/14 02:46:00;;;;;;;8.90;2.70;;;7.40;99.90;;;;;;4980486;28;20201;-86
2023/01/14 02:48:30;;;;;;;4.15;2.55;;;7.30;99.90;;;;;;5013151;28;20211;-86
2023/01/14 02:50:57;;;;;;;3.17;2.40;;;7.30;99.90;;;;;;5023446;28;20256;-86
2023/01/14 02:53:24;;;;;;;4.05;2.97;;;7.20;99.90;;;;;;5025564;28;20655;-87
2023/01/14 02:55:52;;;;;;;8.88;2.78;;;7.20;1.00;;;;;;5024880;28;20689;-87
2023/01/14 02:58:39;;;;;;;3.20;2.40;;;7.20;1.00;;;;;;5022204;28;20242;-87
2023/01/14 03:01:26;;;;;;;3.35;2.42;;;7.20;1.00;;;;;;5025088;28;20252;-86
2023/01/14 03:04:23;;;;;;;3.05;2.75;;;7.20;99.90;;;;;;5024107;28;20204;-87
2023/01/14 03:07:02;;;;;;;8.77;4.78;;;7.30;99.90;;;;;;5032346;28;20219;-87
2023/01/14 03:09:37;;;;;;;5.35;3.42;;;7.30;99.90;;;;;;5026657;28;20204;-85
2023/01/14 03:12:11;;;;;;;2.60;1.92;;;7.40;99.90;;;;;;5025987;28;20215;-85
2023/01/14 03:14:45;;;;;;;6.72;2.53;;;7.40;1.00;;;;;;5025748;28;20196;-85
2023/01/14 03:17:18;;;;;;;2.22;2.05;;;7.40;1.00;;;;;;5019430;28;20192;-85
2023/01/14 03:19:51;;;;;;;2.08;1.75;;;7.40;1.00;;;;;;5019148;28;20243;-86
2023/01/14 03:22:18;;;;;;;3.13;2.10;;;7.40;1.00;;;;;;5019641;28;20312;-86
2023/01/14 03:24:46;;;;;;;2.03;1.90;;;7.40;1.00;;;;;;5019398;28;20287;-85
2023/01/14 03:27:19;;;;;;;2.38;1.80;;;7.40;1.00;;;;;;5024162;28;20236;-85
2023/01/14 03:29:50;;;;;;;3.40;2.00;;;7.40;99.90;;;;;;5029711;28;20200;-85
2023/01/14 03:32:23;;;;;;;5.03;1.83;;;7.40;99.90;;;;;;5020236;28;20255;-86
2023/01/14 03:34:55;;;;;;;3.42;2.00;;;7.30;99.90;;;;;;5020328;28;20267;-87
2023/01/14 03:37:26;;;;;;;3.25;1.52;;;7.30;99.90;;;;;;5019788;28;20224;-87
2023/01/14 03:39:55;;;;;;;4.40;1.83;;;7.30;99.90;;;;;;5019972;28;20185;-87
2023/01/14 03:42:27;;;;;;;2.38;1.83;;;7.10;99.90;;;;;;5048784;22;20232;-83
2023/01/14 03:45:00;;;;;;;3.50;2.10;;;7.30;99.90;;;;;;5029784;28;20276;-83
2023/01/14 03:47:31;;;;;;;5.10;2.33;;;7.30;99.90;;;;;;5028789;28;20195;-84
2023/01/14 03:50:01;;;;;;;9.20;1.77;;;7.30;99.90;;;;;;5028496;28;20193;-83
2023/01/14 03:52:40;;;;;;;2.13;1.92;;;7.30;1.00;;;;;;5028288;28;20235;-84
2023/01/14 03:55:14;;;;;;;2.10;1.90;;;7.40;1.00;;;;;;5028438;28;20184;-83
2023/01/14 03:57:48;;;;;;;2.40;2.20;;;7.40;90.30;;;;;;5028113;28;20256;-84
2023/01/14 04:00:23;;;;;;;4.30;2.03;;;7.40;51.30;;;;;;5027941;28;20607;-84
2023/01/14 04:02:53;;;;;;;3.15;2.42;;;7.50;99.90;;;;;;5027122;28;20254;-83
2023/01/14 04:05:20;;;;;;;2.90;2.33;;;7.40;1.00;;;;;;5027480;28;20641;-84
2023/01/14 04:07:49;;;;;;;6.68;2.35;;;7.50;1.00;;;;;;5027254;28;20228;-83
2023/01/14 04:10:16;;;;;;;4.55;2.35;;;7.50;1.00;;;;;;5027184;28;20223;-83
2023/01/14 04:15:24;;;;;;;2.30;2.13;;;7.60;1.00;;;;;;5031323;28;20180;-82
2023/01/14 04:17:52;;;;;;;3.25;2.28;;;7.60;11.60;;;;;;5035256;28;20281;-82
2023/01/14 04:20:19;;;;;;;6.38;2.53;;;7.50;1.00;;;;;;5036788;28;20235;-82
2023/01/14 04:22:46;;;;;;;3.60;1.80;;;7.50;99.90;;;;;;5039026;28;20776;-83
2023/01/14 04:25:12;;;;;;;4.47;2.63;;;7.40;27.80;;;;;;5038750;28;20288;-83
2023/01/14 04:27:39;;;;;;;2.92;2.42;;;7.40;1.00;;;;;;5039371;28;20729;-83
2023/01/14 04:30:08;;;;;;;3.97;2.70;;;7.40;43.20;;;;;;5039801;28;20208;-83
2023/01/14 04:32:35;;;;;;;6.13;2.88;;;7.40;1.00;;;;;;5029406;28;20223;-83
2023/01/14 04:35:03;;;;;;;2.15;1.95;;;7.40;18.60;;;;;;5031139;28;20189;-83
2023/01/14 04:37:30;;;;;;;3.35;2.17;;;7.40;1.00;;;;;;5033683;28;20291;-84
2023/01/14 04:39:57;;;;;;;9.07;2.10;;;7.50;1.00;;;;;;5033410;28;20200;-84
2023/01/14 04:42:31;;;;;;;4.88;3.03;;;7.40;1.00;;;;;;5040700;28;20219;-83
2023/01/14 04:45:00;;;;;;;4.80;2.90;;;7.40;44.20;;;;;;5041436;28;20201;-83
2023/01/14 04:47:28;;;;;;;2.25;1.73;;;7.30;99.90;;;;;;5041615;28;20188;-82
2023/01/14 04:49:55;;;;;;;2.65;2.03;;;7.30;99.90;;;;;;5040799;28;20264;-83
2023/01/14 04:52:24;;;;;;;2.05;1.80;;;7.20;99.90;;;;;;5034496;28;20283;-83
2023/01/14 04:54:51;;;;;;;5.10;2.55;;;7.10;99.90;;;;;;5031652;28;20214;-83
2023/01/14 04:57:18;;;;;;;3.17;1.90;;;7.30;99.90;;;;;;5030902;28;20256;-83
2023/01/14 04:59:45;;;;;;;8.32;2.13;;;7.20;99.90;;;;;;5028750;28;20266;-83
2023/01/14 05:02:12;;;;;;;2.38;2.17;;;7.30;99.90;;;;;;5027365;28;20229;-83
2023/01/14 05:04:39;;;;;;;4.40;2.00;;;7.30;99.90;;;;;;5027241;28;20236;-83
2023/01/14 05:07:05;;;;;;;2.08;1.80;;;7.30;99.90;;;;;;5028042;28;20219;-83
2023/01/14 05:09:34;;;;;;;5.75;2.88;;;7.30;11.20;;;;;;5032088;28;20292;-83
2023/01/14 05:12:01;;;;;;;7.10;3.05;;;7.50;51.40;;;;;;5029325;28;20660;-83
2023/01/14 05:14:27;;;;;;;4.20;3.17;;;7.40;1.00;;;;;;5030273;28;20201;-83
2023/01/14 05:16:54;;;;;;;4.65;3.10;;;7.30;1.00;;;;;;5029706;28;20223;-83
2023/01/14 05:19:21;;;;;;;8.15;3.50;;;7.40;1.00;;;;;;5035643;28;20189;-83
2023/01/14 05:21:48;;;;;;;5.22;3.95;;;7.40;1.00;;;;;;5039724;28;20208;-83
2023/01/14 05:24:19;;;;;;;3.88;2.80;;;7.40;1.00;;;;;;5020609;28;20693;-83
2023/01/14 05:26:48;;;;;;;5.90;3.45;;;7.40;1.00;;;;;;5021180;28;20200;-84
2023/01/14 05:29:14;;;;;;;6.30;3.05;;;7.40;1.00;;;;;;5023339;28;20215;-83
2023/01/14 05:31:41;;;;;;;3.80;3.50;;;7.40;99.90;;;;;;5027687;28;20228;-83
2023/01/14 05:34:08;;;;;;;4.13;2.90;;;7.40;99.90;;;;;;5029318;28;20235;-83
2023/01/14 05:36:35;;;;;;;3.70;2.50;;;7.30;99.90;;;;;;5028676;28;20197;-84
2023/01/14 05:39:02;;;;;;;6.40;4.13;;;7.40;99.90;;;;;;5028487;28;20295;-84
2023/01/14 05:41:28;;;;;;;9.02;2.60;;;7.40;99.90;;;;;;5029057;28;20275;-83
2023/01/14 05:46:41;;;;;;;5.20;2.60;;;7.50;99.90;;;;;;5029123;28;20192;-83
2023/01/14 05:49:08;;;;;;;6.05;2.20;;;7.70;99.90;;;;;;5029516;28;20880;-83
2023/01/14 05:51:35;;;;;;;8.10;2.85;;;7.50;99.90;;;;;;5029251;28;20234;-83
2023/01/14 05:54:01;;;;;;;6.18;3.00;;;7.50;99.90;;;;;;5028730;28;20288;-83
2023/01/14 05:56:28;;;;;;;8.25;3.60;;;7.40;43.20;;;;;;5029134;28;20252;-83
2023/01/14 05:58:56;;;;;;;2.60;2.40;;;7.40;99.90;;;;;;5028155;28;20276;-84
2023/01/14 06:06:54;;;;;;;4.88;2.10;;;7.40;95.60;;;;;;5029220;28;20255;-83
2023/01/14 06:09:21;;;;;;;7.80;2.50;;;7.60;99.90;;;;;;5029169;28;20268;-83
2023/01/14 06:11:50;;;;;;;2.30;2.10;;;7.40;76.60;;;;;;5028708;28;20631;-83
2023/01/14 06:14:18;;;;;;;7.60;2.42;;;7.40;73.30;;;;;;5028120;28;20208;-83
2023/01/14 06:16:51;;;;;;;4.18;2.10;;;7.40;82.50;;;;;;5028357;28;20242;-84
2023/01/14 06:19:18;;;;;;;3.87;1.80;;;7.40;99.90;;;;;;5029427;28;20223;-83
2023/01/14 06:21:45;;;;;;;5.50;2.17;;;7.50;1.00;;;;;;5023215;28;20876;-83
2023/01/14 06:24:12;;;;;;;4.35;1.90;;;7.50;33.00;;;;;;5018474;28;20211;-83
2023/01/14 06:26:39;;;;;;;3.90;3.13;;;7.50;99.90;;;;;;5019296;28;20703;-84
2023/01/14 06:29:08;;;;;;;7.93;2.72;;;7.30;5.20;;;;;;5020628;28;20650;-84
2023/01/14 06:31:37;;;;;;;5.13;2.20;;;7.40;1.00;;;;;;5021283;28;20594;-84
2023/01/14 06:34:05;;;;;;;3.80;2.80;;;7.40;1.00;;;;;;5016583;28;20208;-84
2023/01/14 06:36:34;;;;;;;3.15;2.30;;;7.50;99.90;;;;;;5026926;28;20189;-83
2023/01/14 06:39:01;;;;;;;5.55;2.38;;;7.40;99.90;;;;;;5039408;28;20239;-82
2023/01/14 06:41:28;;;;;;;4.68;2.60;;;7.70;1.00;;;;;;5038767;28;20235;-82
2023/01/14 06:43:55;;;;;;;6.18;2.20;;;7.50;99.90;;;;;;5035826;28;20272;-82
2023/01/14 06:46:22;;;;;;;4.68;2.55;;;7.30;1.00;;;;;;5036163;28;20284;-82
2023/01/14 06:48:50;;;;;;;2.50;2.30;;;7.20;99.90;;;;;;5033383;28;20228;-84
2023/01/14 06:51:20;;;;;;;2.58;1.67;;;6.80;99.90;;;;;;5035526;28;20251;-83
2023/01/14 06:53:47;;;;;;;2.92;2.20;;;7.10;99.90;;;;;;5035805;28;20209;-83
2023/01/14 06:56:17;;;;;;;3.65;2.78;;;7.10;99.90;;;;;;5035931;28;20196;-83
2023/01/14 06:58:47;;;;;;;3.45;3.15;;;7.60;99.90;;;;;;5035917;28;20228;-84
2023/01/14 07:01:14;;;;;;;6.47;3.20;;;7.10;99.90;;;;;;5032241;28;20327;-83
2023/01/14 07:03:41;;;;;;;4.47;2.45;;;7.00;1.00;;;;;;5029524;28;20209;-84
2023/01/14 07:06:09;;;;;;;7.75;3.38;;;7.80;1.00;;;;;;5030245;28;20581;-83
2023/01/14 07:08:36;;;;;;;4.03;2.78;;;6.90;1.00;;;;;;5030716;28;20211;-83
2023/01/14 07:11:05;;;;;;;5.63;2.47;;;6.50;1.00;;;;;;5029419;28;20255;-83
2023/01/14 07:13:33;;;;;;;3.05;2.45;;;6.60;1.00;;;;;;5030894;28;20200;-84
2023/01/14 07:16:00;;;;;;;6.57;2.50;;;6.80;1.00;;;;;;5027800;28;20211;-83
2023/01/14 07:18:27;;;;;;;4.28;2.30;;;;;;;;;;5028922;28;20308;-83
2023/01/14 07:20:58;;;;;;;4.85;1.77;;;6.90;1.00;;;;;;5029032;28;20287;-83
2023/01/14 07:23:27;;;;;;;4.63;1.80;;;6.80;1.00;;;;;;5029870;28;20296;-83
2023/01/14 07:25:56;;;;;;;4.97;2.63;;;6.70;1.00;;;;;;5029705;28;20257;-83
2023/01/14 07:28:23;;;;;;;5.65;2.47;;;6.80;1.00;;;;;;5028424;28;20231;-83
2023/01/14 07:30:51;;;;;;;10.68;2.80;;;6.80;1.00;;;;;;5030389;28;20268;-83
2023/01/14 07:33:18;;;;;;;6.28;2.45;;;6.90;1.00;;;;;;5032739;28;20706;-83
2023/01/14 07:35:51;;;;;;;2.85;1.67;;;6.90;1.00;;;;;;5033586;28;20205;-83
2023/01/14 07:38:18;;;;;;;4.00;2.30;;;6.90;1.00;;;;;;5033738;28;20197;-84
2023/01/14 07:40:46;;;;;;;5.35;2.22;;;7.10;1.00;;;;;;5036374;28;20221;-81
2023/01/14 07:43:13;;;;;;;6.13;2.45;;;6.90;1.00;;;;;;5035455;28;20264;-82
2023/01/14 07:45:39;;;;;;;3.75;2.53;;;6.90;1.00;;;;;;5036692;28;20220;-82
2023/01/14 07:48:06;;;;;;;8.32;2.42;;;6.90;1.00;;;;;;5030649;28;20268;-83
2023/01/14 07:50:33;;;;;;;6.10;2.63;;;6.90;1.00;;;;;;5029066;28;20254;-83
2023/01/14 07:53:00;;;;;;;11.07;2.85;;;6.90;1.00;;;;;;5028591;28;20292;-84
2023/01/14 07:55:28;;;;;;;2.22;2.00;;;6.90;1.00;;;;;;5031015;28;20280;-84
2023/01/14 07:57:56;;;;;;;8.13;2.88;;;6.80;1.00;;;;;;5031699;28;20201;-84
2023/01/14 08:00:23;;;;;;;3.72;2.38;;;6.80;1.00;;;;;;5031349;28;20235;-82
2023/01/14 08:02:50;;;;;;;10.18;2.80;;;6.80;1.00;;;;;;5031173;28;20288;-83
2023/01/14 08:05:17;;;;;;;5.30;2.38;;;6.90;99.90;;;;;;5031738;28;20260;-83
2023/01/14 08:07:44;;;;;;;4.90;1.90;;;6.90;99.90;;;;;;5032219;28;20209;-83
2023/01/14 08:10:12;;;;;;;7.03;2.80;;;7.00;99.90;;;;;;5032420;28;20196;-82
2023/01/14 08:12:39;;;;;;;3.17;2.17;;;7.00;99.90;;;;;;5023704;28;20221;-83
2023/01/14 08:15:10;;;;;;;4.45;3.35;;;7.10;99.90;;;;;;5026767;28;20739;-84
2023/01/14 08:17:37;;;;;;;3.15;2.85;;;7.10;99.90;;;;;;5027279;28;20280;-84
2023/01/14 08:20:05;;;;;;;3.80;2.60;;;7.40;99.90;;;;;;5030328;28;20225;-83
2023/01/14 08:22:32;;;;;;;4.47;3.03;;;7.20;58.30;;;;;;5030189;28;20225;-84
2023/01/14 08:24:59;;;;;;;6.80;2.70;;;7.20;1.00;;;;;;5031624;28;20200;-84
2023/01/14 08:27:27;;;;;;;4.03;2.22;;;7.20;1.00;;;;;;5031084;28;20201;-84
2023/01/14 08:29:54;;;;;;;5.35;3.28;;;7.10;11.70;;;;;;5030436;28;20209;-83
2023/01/14 08:32:22;;;;;;;6.65;2.83;;;7.20;1.00;;;;;;5035336;28;20228;-83
2023/01/14 08:34:49;;;;;;;3.60;2.40;;;7.20;1.00;;;;;;5040570;28;20185;-83
2023/01/14 08:37:16;;;;;;;3.35;3.05;;;7.40;1.00;;;;;;5029950;28;20961;-83
2023/01/14 08:39:42;;;;;;;4.13;2.40;;;7.30;1.00;;;;;;5021816;28;20268;-83
2023/01/14 08:42:09;;;;;;;3.25;2.80;;;7.30;99.90;;;;;;5023040;28;20299;-84
2023/01/14 08:44:36;;;;;;;2.83;2.50;;;7.40;1.00;;;;;;5025243;28;20204;-84
2023/01/14 08:47:03;;;;;;;4.55;2.90;;;7.40;1.00;;;;;;5026029;28;20235;-84
2023/01/14 08:49:31;;;;;;;5.75;2.40;;;7.40;99.90;;;;;;5028395;28;20204;-84
2023/01/14 08:51:59;;;;;;;7.07;2.70;;;7.40;99.90;;;;;;5027678;28;20228;-84
2023/01/14 08:54:25;;;;;;;5.55;2.47;;;7.50;99.90;;;;;;5028757;28;20300;-84
2023/01/14 08:56:55;;;;;;;6.40;3.42;;;7.50;99.90;;;;;;5028025;28;20251;-84
2023/01/14 08:59:22;;;;;;;7.32;3.00;;;7.60;99.90;;;;;;5029488;28;20211;-84
2023/01/14 09:01:48;;;;;;;3.75;2.08;;;7.60;1.00;;;;;;5028646;28;20766;-84
2023/01/14 09:04:15;;;;;;;4.35;2.10;;;7.50;1.00;;;;;;5028784;28;20268;-84
2023/01/14 09:17:40;;;;;;;5.10;2.42;;;7.90;99.90;;;;;;5034853;28;20390;-84
2023/01/14 09:20:11;;;;;;;2.37;2.13;;;7.90;99.90;;;;;;5035072;28;20624;-83
2023/01/14 09:22:40;;;;;;;3.72;2.80;;;7.90;99.90;;;;;;5032960;28;20519;-84
2023/01/14 09:25:08;;;;;;;4.00;2.50;;;7.90;1.00;;;;;;5033654;28;20205;-84
2023/01/14 09:27:34;;;;;;;4.13;2.30;;;8.20;99.90;;;;;;5031936;28;20551;-84
2023/01/14 09:30:01;;;;;;;5.53;2.80;;;8.10;1.00;;;;;;5034787;28;20467;-84
2023/01/14 09:32:28;;;;;;;4.40;2.50;;;8.00;1.00;;;;;;5032272;28;20470;-85
2023/01/14 09:34:55;;;;;;;14.83;2.47;;;8.10;1.00;;;;;;5030242;28;20474;-85
2023/01/14 09:37:24;;;;;;;2.50;2.30;;;8.10;1.00;;;;;;5027077;28;20448;-84
2023/01/14 09:39:52;;;;;;;5.05;2.47;;;8.20;1.00;;;;;;5027993;28;20228;-84
2023/01/14 09:42:27;;;;;;;5.15;2.45;;;8.30;99.90;;;;;;5066714;22;20300;-86
2023/01/14 09:45:01;;;;;;;4.23;2.33;;;8.30;99.90;;;;;;5025456;28;20248;-87
2023/01/14 09:47:31;;;;;;;9.43;4.87;;;8.30;77.40;;;;;;5022504;28;20479;-86
2023/01/14 09:49:57;;;;;;;3.00;2.30;;;8.30;99.90;;;;;;5022220;28;20957;-86
2023/01/14 09:53:03;;;;;;;4.30;2.67;;;8.40;32.80;;;;;;5022223;28;21021;-87
2023/01/14 09:55:38;;;;;;;3.43;2.30;;;8.50;99.90;;;;;;5021561;28;20474;-87
2023/01/14 09:58:12;;;;;;;8.20;2.40;;;8.50;41.30;;;;;;5024128;28;20462;-85
2023/01/14 10:00:49;;;;;;;5.30;2.10;;;8.50;1.00;;;;;;5024620;28;20489;-87
2023/01/14 10:03:25;;;;;;;5.73;2.70;;;8.40;1.00;;;;;;5022823;28;20561;-86
2023/01/14 10:05:56;;;;;;;5.70;2.23;;;8.40;1.00;;;;;;5022728;28;20460;-85
2023/01/14 10:08:25;;;;;;;6.13;2.30;;;8.40;1.00;;;;;;5023874;28;20432;-85
2023/01/14 10:10:54;;;;;;;8.70;3.00;;;8.30;1.00;;;;;;5024279;28;20551;-86
2023/01/14 10:13:25;;;;;;;7.13;2.27;;;8.40;1.00;;;;;;5024424;28;20463;-85
2023/01/14 10:15:56;;;;;;;5.93;2.80;;;8.30;1.00;;;;;;5026700;28;20430;-87
2023/01/14 10:18:27;;;;;;;5.43;1.73;;;8.30;1.00;;;;;;5021123;28;20546;-85
2023/01/14 10:20:56;;;;;;;10.50;2.63;;;8.30;1.00;;;;;;5021991;28;20574;-86
2023/01/14 10:23:27;;;;;;;10.97;2.70;;;8.30;1.00;;;;;;5021084;28;20537;-86
2023/01/14 10:25:57;;;;;;;7.57;3.47;;;8.40;1.00;;;;;;5022328;28;20435;-85
2023/01/14 10:28:27;;;;;;;12.53;3.03;;;8.40;1.00;;;;;;5021965;28;20539;-86
2023/01/14 10:30:54;;;;;;;13.70;2.97;;;8.40;1.00;;;;;;5022097;28;20458;-85
2023/01/14 10:33:23;;;;;;;6.60;2.80;;;8.40;1.00;;;;;;5022366;28;20514;-85
2023/01/14 10:35:56;;;;;;;7.30;2.53;;;8.50;1.00;;;;;;5022742;28;20454;-87
2023/01/14 10:38:25;;;;;;;3.53;2.83;;;8.50;1.00;;;;;;5025854;28;20432;-85
2023/01/14 10:40:54;;;;;;;7.27;3.10;;;8.50;1.00;;;;;;5022976;28;20535;-86
2023/01/14 10:43:30;;;;;;;5.63;3.07;;;8.50;1.00;;;;;;5023057;28;20494;-86
2023/01/14 10:45:57;;;;;;;5.13;2.77;;;8.50;1.00;;;;;;5022631;28;20477;-88
2023/01/14 10:48:26;;;;;;;11.03;3.40;;;8.50;1.00;;;;;;5025601;28;21033;-87
2023/01/14 10:50:53;;;;;;;7.13;2.83;;;8.60;99.90;;;;;;5034893;28;20458;-84
2023/01/14 10:53:22;;;;;;;17.13;3.70;;;8.70;99.90;;;;;;5034794;28;20463;-86
2023/01/14 10:55:53;;;;;;;5.10;2.53;;;8.70;99.90;;;;;;5031403;28;20437;-87
2023/01/14 10:58:28;;;;;;;9.03;2.70;;;8.60;99.90;;;;;;5029774;28;20435;-87
2023/01/14 11:01:01;;;;;;;8.30;4.00;;;8.60;99.90;;;;;;5031623;28;20410;-87
2023/01/14 11:03:30;;;;;;;3.77;2.33;;;8.60;99.90;;;;;;5032675;28;20462;-84
2023/01/14 11:05:59;;;;;;;7.00;2.67;;;8.60;99.90;;;;;;5038191;28;20439;-84
2023/01/14 11:08:32;;;;;;;14.30;2.93;;;8.60;99.90;;;;;;5038098;28;20434;-85
2023/01/14 11:11:01;;;;;;;11.00;2.80;;;8.60;99.90;;;;;;5026022;28;20446;-85
2023/01/14 11:13:31;;;;;;;6.60;2.50;;;8.50;99.90;;;;;;5021589;28;20480;-85
2023/01/14 11:15:59;;;;;;;8.00;4.13;;;8.60;99.90;;;;;;5024693;28;20495;-87
2023/01/14 11:18:31;;;;;;;10.60;3.40;;;8.70;99.90;;;;;;5023800;28;20482;-87
2023/01/14 11:21:15;;;;;;;11.50;3.67;;;8.80;99.90;;;;;;5025939;28;20518;-87
2023/01/14 11:23:45;;;;;;;3.93;2.87;;;8.80;99.90;;;;;;5025511;28;20451;-86
2023/01/14 11:26:20;;;;;;;10.27;3.60;;;8.70;99.90;;;;;;5027137;28;20490;-87
2023/01/14 11:28:50;;;;;;;6.30;3.50;;;8.70;99.90;;;;;;5023370;28;20950;-86
2023/01/14 11:31:29;;;;;;;5.40;2.20;;;8.80;99.90;;;;;;5022577;28;20526;-87
2023/01/14 11:33:57;;;;;;;12.07;3.53;;;8.70;99.90;;;;;;5022073;28;20929;-87
2023/01/14 11:36:26;;;;;;;7.60;4.43;;;8.60;99.90;;;;;;5021025;28;20456;-87
2023/01/14 11:38:54;;;;;;;8.43;3.57;;;8.60;99.90;;;;;;5020928;28;20455;-87
2023/01/14 11:41:40;;;;;;;10.43;3.20;;;8.60;99.90;;;;;;5020737;28;20456;-87
2023/01/14 11:44:26;;;;;;;17.10;3.20;;;8.60;99.90;;;;;;5021529;28;20855;-87
2023/01/14 11:47:20;;;;;;;5.00;2.40;;;8.60;99.90;;;;;;5021490;28;20928;-87
2023/01/14 11:49:47;;;;;;;10.90;3.07;;;8.70;99.90;;;;;;4987384;28;20447;-86
2023/01/14 11:52:20;;;;;;;12.03;3.40;;;8.70;99.90;;;;;;5022203;28;20478;-88
2023/01/14 11:54:48;;;;;;;7.97;3.30;;;8.60;99.90;;;;;;5026371;28;20494;-87
2023/01/14 11:57:17;;;;;;;9.73;3.00;;;8.60;99.90;;;;;;5021705;28;20444;-86
2023/01/14 11:59:49;;;;;;;7.70;2.90;;;8.60;99.90;;;;;;5023964;28;20506;-86
2023/01/14 12:02:24;;;;;;;6.20;2.93;;;8.60;99.90;;;;;;5021708;28;20464;-87
2023/01/14 12:04:58;;;;;;;9.60;2.53;;;8.70;99.90;;;;;;5021899;28;20430;-88
2023/01/14 12:07:30;;;;;;;5.90;2.83;;;8.70;99.90;;;;;;5021591;28;20546;-87
2023/01/14 12:10:00;;;;;;;5.23;2.33;;;8.60;99.90;;;;;;5021456;28;20820;-87
2023/01/14 12:16:48;;;;;;;6.57;2.93;;;8.60;99.90;;;;;;5022125;28;20456;-86
2023/01/14 12:18:14;;;;;;;8.27;3.40;;;8.70;99.90;;;;;;5021674;28;20526;-86
2023/01/14 12:20:41;;;;;;;9.30;3.07;;;8.60;99.90;;;;;;5022472;28;20458;-87
2023/01/14 12:23:14;;;;;;;10.10;3.80;;;8.60;99.90;;;;;;5022859;28;20481;-87
2023/01/14 12:25:44;;;;;;;9.23;3.93;;;8.60;99.90;;;;;;5022146;28;20427;-85
2023/01/14 12:28:16;;;;;;;12.83;4.70;;;8.70;99.90;;;;;;5023307;28;20438;-85
2023/01/14 12:30:51;;;;;;;6.97;2.73;;;8.70;99.90;;;;;;5031545;28;20472;-88
2023/01/14 12:33:29;;;;;;;5.13;2.90;;;8.60;99.90;;;;;;5026349;28;20442;-87
2023/01/14 12:36:01;;;;;;;9.90;3.43;;;8.70;99.90;;;;;;5027436;28;20421;-87
2023/01/14 12:47:06;;;;;;;6.53;1.90;;;8.60;99.90;;;;;;5029746;28;20486;-86
2023/01/14 12:49:34;;;;;;;5.03;2.63;;;8.60;99.90;;;;;;5027829;28;20473;-87
2023/01/14 12:52:02;;;;;;;8.43;2.93;;;8.70;99.90;;;;;;5026058;28;20434;-87
2023/01/14 12:54:34;;;;;;;6.30;2.87;;;8.60;99.90;;;;;;5026871;28;20447;-86
2023/01/14 12:57:03;;;;;;;4.57;2.73;;;8.60;99.90;;;;;;5033812;28;20420;-84
2023/01/14 12:59:32;;;;;;;6.13;2.87;;;8.60;99.90;;;;;;5037285;28;20443;-84
2023/01/14 13:02:02;;;;;;;8.40;4.00;;;8.60;99.90;;;;;;5031761;28;20471;-85
2023/01/14 13:04:35;;;;;;;7.73;3.70;;;8.60;99.90;;;;;;5036732;28;20406;-86
2023/01/14 13:07:08;;;;;;;6.17;2.57;;;8.90;99.90;;;;;;5040000;28;20487;-87
2023/01/14 13:09:46;;;;;;;4.27;2.87;;;8.70;99.90;;;;;;5036898;28;20436;-87
2023/01/14 13:12:28;;;;;;;8.37;2.93;;;8.70;99.90;;;;;;5032152;28;20563;-86
2023/01/14 13:14:58;;;;;;;7.37;2.87;;;8.60;96.70;;;;;;5034617;28;20460;-86
2023/01/14 13:17:33;;;;;;;4.00;2.30;;;8.60;99.90;;;;;;5040212;28;20424;-87
2023/01/14 13:20:04;;;;;;;14.27;6.60;;;8.60;98.80;;;;;;5039718;28;20455;-88
2023/01/14 13:22:43;;;;;;;9.97;3.00;;;8.60;98.90;;;;;;5034436;28;20467;-86
2023/01/14 13:25:34;;;;;;;6.67;3.20;;;8.60;94.90;;;;;;5024338;28;20880;-87
2023/01/14 13:28:03;;;;;;;6.57;2.47;;;8.50;99.90;;;;;;5023078;28;20450;-86
2023/01/14 13:30:43;;;;;;;6.33;2.77;;;8.50;99.90;;;;;;5023029;28;20430;-86
2023/01/14 13:33:22;;;;;;;9.30;3.10;;;8.50;99.90;;;;;;5022874;28;20538;-87
2023/01/14 13:36:20;;;;;;;4.07;2.70;;;8.60;99.90;;;;;;5023701;28;20402;-87
2023/01/14 13:39:04;;;;;;;13.23;3.27;;;8.30;99.90;;;;;;4990043;28;20475;-87
2023/01/14 13:41:40;;;;;;;6.23;3.30;;;8.50;99.90;;;;;;5023513;28;20502;-87
2023/01/14 13:44:25;;;;;;;7.73;2.20;;;8.50;99.90;;;;;;5022685;28;20485;-87
2023/01/14 13:46:54;;;;;;;13.30;3.20;;;8.80;99.90;;;;;;5024042;28;20442;-87
2023/01/14 13:49:33;;;;;;;9.63;4.20;;;8.50;99.90;;;;;;5026908;28;20474;-86
2023/01/14 13:52:05;;;;;;;7.90;2.47;;;8.60;99.90;;;;;;5037516;28;20491;-87
2023/01/14 13:54:35;;;;;;;10.70;4.27;;;8.50;99.90;;;;;;5037276;28;20499;-86